createdAt,value
2022-11-17T00:00:43.541Z,99670.88
2022-11-17T00:03:15.772Z,99671.40
2022-11-17T00:05:44.220Z,99673.98
2022-11-17T00:08:12.225Z,99674.49
2022-11-17T00:10:39.885Z,99671.73
2022-11-17T00:13:26.711Z,99672.41
2022-11-17T00:15:54.309Z,99677.38
2022-11-17T00:18:38.122Z,99675.65
2022-11-17T00:21:21.965Z,99675.48
2022-11-17T00:23:50.536Z,99676.82
2022-11-17T00:26:30.926Z,99674.23
2022-11-17T00:29:04.489Z,99673.18
2022-11-17T00:31:50.474Z,99671.45
2022-11-17T00:34:23.142Z,99675.88
2022-11-17T00:36:52.860Z,99678.10
2022-11-17T00:39:23.014Z,99673.84
2022-11-17T00:41:50.766Z,99672.45
2022-11-17T00:44:18.582Z,99674.67
2022-11-17T00:46:46.215Z,99683.73
2022-11-17T00:49:14.553Z,99684.24
2022-11-17T00:51:42.368Z,99688.88
2022-11-17T00:54:12.032Z,99689.36
2022-11-17T00:56:39.793Z,99689.00
2022-11-17T00:59:07.504Z,99687.94
2022-11-17T01:01:35.664Z,99688.79
2022-11-17T01:04:04.478Z,99688.59
2022-11-17T01:06:40.473Z,99688.59
2022-11-17T01:09:15.889Z,99688.41
2022-11-17T01:11:44.486Z,99685.50
2022-11-17T01:14:15.925Z,99687.56
2022-11-17T01:16:44.350Z,99685.48
2022-11-17T01:19:14.019Z,99682.75
2022-11-17T01:21:41.751Z,99680.66
2022-11-17T01:24:11.546Z,99672.92
2022-11-17T01:26:40.308Z,99673.77
2022-11-17T01:29:10.798Z,99676.14
2022-11-17T01:31:41.364Z,99674.77
2022-11-17T01:34:09.220Z,99671.67
2022-11-17T01:36:54.480Z,99675.10
2022-11-17T01:39:24.467Z,99670.28
2022-11-17T01:41:53.381Z,99669.08
2022-11-17T01:44:50.209Z,99666.15
2022-11-17T01:47:24.022Z,99666.48
2022-11-17T01:49:56.398Z,99665.77
2022-11-17T01:52:25.384Z,99665.23
2022-11-17T01:54:55.386Z,99667.79
2022-11-17T01:57:34.939Z,99665.39
2022-11-17T02:00:07.216Z,99663.83
2022-11-17T02:02:37.038Z,99666.05
2022-11-17T02:05:30.310Z,99668.95
2022-11-17T02:08:01.826Z,99671.33
2022-11-17T02:10:32.094Z,99672.84
2022-11-17T02:13:01.537Z,99663.05
2022-11-17T02:15:30.275Z,99659.27
2022-11-17T02:17:59.535Z,99654.63
2022-11-17T02:20:41.497Z,99651.19
2022-11-17T02:23:41.098Z,99649.48
2022-11-17T02:26:40.567Z,99648.45
2022-11-17T02:29:25.666Z,99645.35
2022-11-17T02:32:00.719Z,99643.13
2022-11-17T02:34:34.749Z,99641.05
2022-11-17T02:37:34.282Z,99639.14
2022-11-17T02:40:20.707Z,99635.67
2022-11-17T02:43:18.130Z,99635.48
2022-11-17T02:45:56.531Z,99639.05
2022-11-17T02:48:44.918Z,99638.88
2022-11-17T02:51:20.053Z,99638.36
2022-11-17T02:53:50.027Z,99640.61
2022-11-17T02:56:17.638Z,99641.83
2022-11-17T02:58:48.347Z,99644.72
2022-11-17T03:01:22.071Z,99644.38
2022-11-17T03:04:20.574Z,99640.77
2022-11-17T03:07:11.820Z,99641.23
2022-11-17T03:09:55.385Z,99640.88
2022-11-17T03:12:38.887Z,99641.00
2022-11-17T03:15:22.424Z,99639.45
2022-11-17T03:18:21.938Z,99638.42
2022-11-17T03:21:09.641Z,99645.96
2022-11-17T03:24:00.307Z,99649.56
2022-11-17T03:26:34.352Z,99653.66
2022-11-17T03:29:05.300Z,99651.27
2022-11-17T03:31:35.207Z,99653.48
2022-11-17T03:34:07.180Z,99651.24
2022-11-17T03:36:39.659Z,99647.81
2022-11-17T03:39:14.585Z,99650.23
2022-11-17T03:41:47.075Z,99645.26
2022-11-17T03:44:18.298Z,99642.86
2022-11-17T03:46:49.024Z,99643.06
2022-11-17T03:49:35.282Z,99637.41
2022-11-17T03:52:04.025Z,99638.11
2022-11-17T03:54:32.495Z,99637.79
2022-11-17T03:57:02.747Z,99638.14
2022-11-17T03:59:43.067Z,99635.05
2022-11-17T04:02:18.418Z,99631.45
2022-11-17T04:05:02.453Z,99630.91
2022-11-17T04:07:30.145Z,99637.05
2022-11-17T04:09:57.811Z,99639.23
2022-11-17T04:12:41.412Z,99645.38
2022-11-17T04:15:26.572Z,99644.05
2022-11-17T04:17:55.195Z,99645.94
2022-11-17T04:20:23.337Z,99645.27
2022-11-17T04:23:07.084Z,99643.40
2022-11-17T04:26:06.578Z,99644.64
2022-11-17T04:28:39.583Z,99646.36
2022-11-17T04:31:14.729Z,99645.34
2022-11-17T04:33:45.259Z,99641.23
2022-11-17T04:36:14.959Z,99638.84
2022-11-17T04:38:50.544Z,99636.27
2022-11-17T04:41:35.657Z,99636.26
2022-11-17T04:44:04.867Z,99634.54
2022-11-17T04:46:34.875Z,99637.28
2022-11-17T04:49:04.425Z,99637.65
2022-11-17T04:51:34.780Z,99632.88
2022-11-17T04:54:05.047Z,99634.27
2022-11-17T04:56:32.777Z,99637.39
2022-11-17T04:59:00.430Z,99641.52
2022-11-17T05:01:28.614Z,99639.14
2022-11-17T05:04:01.803Z,99639.82
2022-11-17T05:06:34.198Z,99637.25
2022-11-17T05:09:07.677Z,99636.05
2022-11-17T05:11:51.614Z,99640.85
2022-11-17T05:14:21.995Z,99641.52
2022-11-17T05:17:13.348Z,99642.88
2022-11-17T05:19:46.575Z,99638.24
2022-11-17T05:22:38.275Z,99640.49
2022-11-17T05:25:06.944Z,99640.33
2022-11-17T05:27:34.914Z,99638.46
2022-11-17T05:30:05.388Z,99639.51
2022-11-17T05:32:32.952Z,99639.33
2022-11-17T05:35:00.549Z,99640.52
2022-11-17T05:37:28.283Z,99639.66
2022-11-17T05:39:55.875Z,99643.24
2022-11-17T05:42:23.462Z,99640.13
2022-11-17T05:44:51.097Z,99641.34
2022-11-17T05:47:18.699Z,99634.16
2022-11-17T05:49:46.284Z,99632.98
2022-11-17T05:52:13.945Z,99634.00
2022-11-17T05:54:41.532Z,99637.80
2022-11-17T05:57:16.769Z,99639.36
2022-11-17T05:59:50.468Z,99644.88
2022-11-17T06:02:29.265Z,99643.20
2022-11-17T06:04:56.876Z,99646.15
2022-11-17T06:07:24.600Z,99637.60
2022-11-17T06:09:53.211Z,99637.10
2022-11-17T06:12:20.794Z,99635.23
2022-11-17T06:14:48.381Z,99630.98
2022-11-17T06:17:23.091Z,99629.29
2022-11-17T06:20:02.895Z,99637.33
2022-11-17T06:22:31.785Z,99643.17
2022-11-17T06:25:00.820Z,99646.80
2022-11-17T06:27:31.935Z,99647.51
2022-11-17T06:30:03.560Z,99647.88
2022-11-17T06:32:34.189Z,99647.59
2022-11-17T06:35:04.519Z,99650.37
2022-11-17T06:37:32.164Z,99647.64
2022-11-17T06:40:02.752Z,99646.83
2022-11-17T06:42:47.640Z,99645.13
2022-11-17T06:45:18.575Z,99649.59
2022-11-17T06:47:46.156Z,99650.63
2022-11-17T06:50:14.857Z,99653.89
2022-11-17T06:52:42.478Z,99654.75
2022-11-17T06:55:10.062Z,99656.80
2022-11-17T06:57:37.703Z,99654.23
2022-11-17T07:00:06.280Z,99656.12
2022-11-17T07:02:33.992Z,99652.02
2022-11-17T07:05:04.947Z,99652.52
2022-11-17T07:07:32.696Z,99655.61
2022-11-17T07:10:00.514Z,99654.27
2022-11-17T07:12:28.124Z,99650.65
2022-11-17T07:14:55.681Z,99656.31
2022-11-17T07:17:23.241Z,99655.63
2022-11-17T07:19:50.793Z,99651.86
2022-11-17T07:22:18.547Z,99655.66
2022-11-17T07:24:46.119Z,99654.29
2022-11-17T07:27:13.740Z,99660.29
2022-11-17T07:29:41.450Z,99657.03
2022-11-17T07:32:11.656Z,99658.90
2022-11-17T07:34:40.171Z,99657.02
2022-11-17T07:37:07.752Z,99656.85
2022-11-17T07:39:35.350Z,99662.17
2022-11-17T07:42:02.929Z,99661.83
2022-11-17T07:44:31.190Z,99660.28
2022-11-17T07:46:58.861Z,99652.06
2022-11-17T07:49:27.836Z,99653.45
2022-11-17T07:51:55.546Z,99650.70
2022-11-17T07:54:23.178Z,99648.13
2022-11-17T07:56:50.842Z,99649.33
2022-11-17T07:59:21.480Z,99656.02
2022-11-17T08:01:49.336Z,99653.46
2022-11-17T08:04:22.423Z,99652.94
2022-11-17T08:06:50.206Z,99652.42
2022-11-17T08:09:17.814Z,99654.50
2022-11-17T08:11:45.364Z,99652.95
2022-11-17T08:14:14.302Z,99651.42
2022-11-17T08:16:42.136Z,99648.17
2022-11-17T08:19:17.018Z,99648.35
2022-11-17T08:21:47.761Z,99649.73
2022-11-17T08:24:16.301Z,99652.64
2022-11-17T08:26:43.906Z,99654.55
2022-11-17T08:29:11.477Z,99656.41
2022-11-17T08:31:41.243Z,99655.23
2022-11-17T08:34:08.853Z,99654.72
2022-11-17T08:36:39.807Z,99655.23
2022-11-17T08:39:07.504Z,99658.67
2022-11-17T08:41:35.155Z,99658.83
2022-11-17T08:44:04.956Z,99661.06
2022-11-17T08:46:32.586Z,99655.23
2022-11-17T08:49:01.108Z,99661.40
2022-11-17T08:51:29.317Z,99657.66
2022-11-17T08:53:59.519Z,99655.60
2022-11-17T08:56:27.410Z,99654.23
2022-11-17T08:58:55.358Z,99660.42
2022-11-17T09:01:24.977Z,99657.14
2022-11-17T09:03:52.519Z,99652.84
2022-11-17T09:06:20.244Z,99654.73
2022-11-17T09:08:48.755Z,99654.74
2022-11-17T09:11:16.977Z,99659.20
2022-11-17T09:13:46.668Z,99653.35
2022-11-17T09:16:15.838Z,99648.38
2022-11-17T09:18:44.319Z,99649.60
2022-11-17T09:21:15.985Z,99654.23
2022-11-17T09:23:43.714Z,99651.66
2022-11-17T09:26:13.732Z,99648.73
2022-11-17T09:28:42.566Z,99644.79
2022-11-17T09:31:13.149Z,99636.90
2022-11-17T09:33:41.154Z,99633.46
2022-11-17T09:36:09.542Z,99637.58
2022-11-17T09:38:38.435Z,99637.06
2022-11-17T09:41:27.373Z,99634.33
2022-11-17T09:44:25.758Z,99641.02
2022-11-17T09:47:25.833Z,99641.70
2022-11-17T09:49:58.754Z,99636.89
2022-11-17T09:52:37.917Z,99631.58
2022-11-17T09:55:08.581Z,99627.96
2022-11-17T09:57:50.958Z,99628.84
2022-11-17T10:00:22.851Z,99633.30
2022-11-17T10:02:51.689Z,99635.52
2022-11-17T10:05:35.465Z,99632.77
2022-11-17T10:08:11.842Z,99626.42
2022-11-17T10:10:45.926Z,99629.18
2022-11-17T10:13:19.828Z,99624.54
2022-11-17T10:15:50.872Z,99622.65
2022-11-17T10:18:18.555Z,99625.21
2022-11-17T10:20:46.326Z,99616.64
2022-11-17T10:23:18.434Z,99615.95
2022-11-17T10:25:49.392Z,99611.65
2022-11-17T10:28:30.180Z,99604.42
2022-11-17T10:31:10.498Z,99604.25
2022-11-17T10:33:47.690Z,99598.25
2022-11-17T10:36:19.963Z,99603.56
2022-11-17T10:38:58.938Z,99597.73
2022-11-17T10:41:39.039Z,99595.14
2022-11-17T10:44:20.908Z,99598.39
2022-11-17T10:47:01.985Z,99597.68
2022-11-17T10:49:36.025Z,99604.23
2022-11-17T10:52:16.599Z,99606.96
2022-11-17T10:54:44.298Z,99601.47
2022-11-17T10:57:20.137Z,99600.44
2022-11-17T10:59:57.749Z,99604.21
2022-11-17T11:02:36.080Z,99602.15
2022-11-17T11:05:13.187Z,99604.90
2022-11-17T11:07:41.680Z,99600.92
2022-11-17T11:10:31.858Z,99595.92
2022-11-17T11:13:45.768Z,99595.87
2022-11-17T11:16:13.349Z,99595.46
2022-11-17T11:18:40.978Z,99599.55
2022-11-17T11:21:17.845Z,99598.14
2022-11-17T11:23:48.332Z,99592.11
2022-11-17T11:26:31.973Z,99592.42
2022-11-17T11:29:17.944Z,99586.05
2022-11-17T11:32:16.737Z,99581.82
2022-11-17T11:35:17.029Z,99574.83
2022-11-17T11:38:03.605Z,99573.20
2022-11-17T11:40:49.697Z,99570.64
2022-11-17T11:43:36.375Z,99561.80
2022-11-17T11:46:19.849Z,99559.52
2022-11-17T11:48:49.697Z,99558.98
2022-11-17T11:51:33.309Z,99556.36
2022-11-17T11:54:09.449Z,99555.27
2022-11-17T11:56:46.040Z,99552.02
2022-11-17T11:59:24.668Z,99539.19
2022-11-17T12:01:59.644Z,99536.39
2022-11-17T12:04:55.739Z,99532.36
2022-11-17T12:07:42.305Z,99530.80
2022-11-17T12:10:20.949Z,99526.73
2022-11-17T12:12:49.574Z,99520.33
2022-11-17T12:15:20.297Z,99524.04
2022-11-17T12:18:12.628Z,99517.77
2022-11-17T12:21:01.241Z,99515.47
2022-11-17T12:23:47.659Z,99514.15
2022-11-17T12:26:28.094Z,99517.01
2022-11-17T12:29:28.691Z,99513.92
2022-11-17T12:32:01.939Z,99513.56
2022-11-17T12:34:36.758Z,99509.42
2022-11-17T12:37:10.378Z,99509.48
2022-11-17T12:39:58.584Z,99510.48
2022-11-17T12:42:28.083Z,99515.17
2022-11-17T12:44:56.587Z,99513.48
2022-11-17T12:47:27.319Z,99513.26
2022-11-17T12:50:37.458Z,99512.15
2022-11-17T12:53:18.272Z,99512.55
2022-11-17T12:56:07.712Z,99513.46
2022-11-17T12:58:57.161Z,99512.23
2022-11-17T13:01:55.601Z,99507.65
2022-11-17T13:04:49.803Z,99505.77
2022-11-17T13:07:25.783Z,99501.36
2022-11-17T13:09:59.029Z,99498.12
2022-11-17T13:12:29.077Z,99496.27
2022-11-17T13:14:58.792Z,99494.21
2022-11-17T13:17:32.659Z,99495.08
2022-11-17T13:20:05.487Z,99495.36
2022-11-17T13:22:36.482Z,99493.58
2022-11-17T13:25:23.255Z,99499.71
2022-11-17T13:27:57.207Z,99503.05
2022-11-17T13:30:31.416Z,99500.81
2022-11-17T13:33:03.864Z,99497.31
2022-11-17T13:35:36.175Z,99493.50
2022-11-17T13:38:26.631Z,99485.29
2022-11-17T13:40:54.397Z,99474.97
2022-11-17T13:43:24.384Z,99467.66
2022-11-17T13:45:54.732Z,99466.54
2022-11-17T13:48:39.944Z,99465.66
2022-11-17T13:51:42.113Z,99463.66
2022-11-17T13:54:13.167Z,99462.02
2022-11-17T13:56:53.834Z,99464.19
2022-11-17T13:59:24.071Z,99467.02
2022-11-17T14:02:24.181Z,99468.10
2022-11-17T14:05:10.731Z,99468.13
2022-11-17T14:07:39.812Z,99463.95
2022-11-17T14:10:31.724Z,99470.52
2022-11-17T14:13:02.788Z,99465.80
2022-11-17T14:15:34.508Z,99466.41
2022-11-17T14:18:17.469Z,99472.06
2022-11-17T14:20:45.105Z,99473.82
2022-11-17T14:23:13.273Z,99473.54
2022-11-17T14:25:43.510Z,99474.83
2022-11-17T14:28:16.996Z,99470.90
2022-11-17T14:30:49.548Z,99472.73
2022-11-17T14:33:17.522Z,99471.00
2022-11-17T14:35:48.150Z,99478.27
2022-11-17T14:38:19.112Z,99475.11
2022-11-17T14:40:49.253Z,99477.98
2022-11-17T14:43:18.319Z,99478.48
2022-11-17T14:45:46.182Z,99483.95
2022-11-17T14:48:18.828Z,99482.94
2022-11-17T14:50:48.164Z,99483.05
2022-11-17T14:53:15.799Z,99487.70
2022-11-17T14:55:43.334Z,99494.69
2022-11-17T14:58:10.911Z,99494.94
2022-11-17T15:00:38.451Z,99494.27
2022-11-17T15:03:06.177Z,99489.10
2022-11-17T15:05:33.908Z,99488.35
2022-11-17T15:08:01.467Z,99490.33
2022-11-17T15:10:29.013Z,99490.05
2022-11-17T15:12:56.569Z,99494.75
2022-11-17T15:15:24.187Z,99496.52
2022-11-17T15:17:51.735Z,99498.24
2022-11-17T15:20:19.431Z,99499.97
2022-11-17T15:22:46.995Z,99508.21
2022-11-17T15:25:14.539Z,99514.39
2022-11-17T15:27:42.151Z,99515.58
2022-11-17T15:30:11.091Z,99516.58
2022-11-17T15:32:38.667Z,99515.52
2022-11-17T15:35:06.730Z,99517.55
2022-11-17T15:37:34.295Z,99519.75
2022-11-17T15:40:02.102Z,99520.05
2022-11-17T15:42:29.654Z,99519.52
2022-11-17T15:44:57.225Z,99516.93
2022-11-17T15:47:24.846Z,99519.45
2022-11-17T15:49:58.381Z,99518.58
2022-11-17T15:52:41.968Z,99513.24
2022-11-17T15:55:14.252Z,99508.77
2022-11-17T15:57:41.788Z,99511.98
2022-11-17T16:00:10.317Z,99512.12
2022-11-17T16:02:40.406Z,99512.94
2022-11-17T16:05:08.205Z,99506.91
2022-11-17T16:07:35.949Z,99509.44
2022-11-17T16:10:03.833Z,99508.54
2022-11-17T16:12:31.488Z,99501.83
2022-11-17T16:14:59.051Z,99501.10
2022-11-17T16:17:26.615Z,99499.52
2022-11-17T16:19:54.287Z,99497.42
2022-11-17T16:22:21.905Z,99505.09
2022-11-17T16:24:49.482Z,99508.29
2022-11-17T16:27:17.069Z,99507.22
2022-11-17T16:29:44.621Z,99507.52
2022-11-17T16:32:12.214Z,99502.91
2022-11-17T16:34:41.444Z,99498.64
2022-11-17T16:37:09.054Z,99497.64
2022-11-17T16:39:36.674Z,99494.40
2022-11-17T16:42:04.255Z,99496.98
2022-11-17T16:44:31.906Z,99495.25
2022-11-17T16:46:59.597Z,99494.05
2022-11-17T16:49:27.187Z,99497.80
2022-11-17T16:51:54.889Z,99498.63
2022-11-17T16:54:22.553Z,99503.06
2022-11-17T16:56:51.407Z,99502.37
2022-11-17T16:59:19.713Z,99501.48
2022-11-17T17:01:47.697Z,99506.77
2022-11-17T17:04:15.699Z,99507.59
2022-11-17T17:06:45.823Z,99510.98
2022-11-17T17:09:15.372Z,99509.57
2022-11-17T17:11:43.359Z,99506.46
2022-11-17T17:14:14.241Z,99505.73
2022-11-17T17:16:42.823Z,99504.67
2022-11-17T17:19:12.450Z,99499.33
2022-11-17T17:21:41.317Z,99495.38
2022-11-17T17:24:09.858Z,99497.73
2022-11-17T17:26:40.018Z,99492.91
2022-11-17T17:29:08.161Z,99489.98
2022-11-17T17:31:38.601Z,99486.70
2022-11-17T17:34:08.315Z,99481.54
2022-11-17T17:36:37.214Z,99473.82
2022-11-17T17:39:05.389Z,99469.71
2022-11-17T17:41:38.083Z,99467.51
2022-11-17T17:44:07.974Z,99468.73
2022-11-17T17:46:37.991Z,99469.97
2022-11-17T17:49:06.707Z,99457.53
2022-11-17T17:51:39.862Z,99458.23
2022-11-17T17:54:10.102Z,99463.38
2022-11-17T17:56:37.664Z,99466.10
2022-11-17T17:59:05.226Z,99463.85
2022-11-17T18:01:37.468Z,99465.04
2022-11-17T18:04:05.382Z,99466.21
2022-11-17T18:06:37.943Z,99465.68
2022-11-17T18:09:07.761Z,99463.77
2022-11-17T18:11:35.706Z,99470.21
2022-11-17T18:14:04.235Z,99471.05
2022-11-17T18:16:33.714Z,99467.77
2022-11-17T18:19:04.217Z,99466.70
2022-11-17T18:21:32.683Z,99462.20
2022-11-17T18:24:01.975Z,99461.82
2022-11-17T18:26:35.351Z,99464.52
2022-11-17T18:29:09.192Z,99459.02
2022-11-17T18:31:37.282Z,99455.75
2022-11-17T18:34:15.318Z,99449.42
2022-11-17T18:36:42.852Z,99448.74
2022-11-17T18:39:10.750Z,99446.89
2022-11-17T18:41:38.519Z,99445.54
2022-11-17T18:44:06.055Z,99443.15
2022-11-17T18:46:33.804Z,99442.45
2022-11-17T18:49:01.488Z,99443.48
2022-11-17T18:51:31.518Z,99442.64
2022-11-17T18:54:01.066Z,99444.33
2022-11-17T18:56:34.534Z,99438.50
2022-11-17T18:59:03.014Z,99433.36
2022-11-17T19:01:30.804Z,99434.19
2022-11-17T19:04:01.028Z,99436.02
2022-11-17T19:06:29.815Z,99434.66
2022-11-17T19:08:59.612Z,99434.45
2022-11-17T19:11:30.762Z,99436.13
2022-11-17T19:14:02.252Z,99441.55
2022-11-17T19:16:31.803Z,99439.80
2022-11-17T19:18:59.604Z,99435.34
2022-11-17T19:21:29.380Z,99433.64
2022-11-17T19:23:58.958Z,99427.54
2022-11-17T19:26:29.108Z,99425.67
2022-11-17T19:29:15.527Z,99420.57
2022-11-17T19:31:45.566Z,99422.80
2022-11-17T19:34:14.479Z,99426.05
2022-11-17T19:36:42.142Z,99426.55
2022-11-17T19:39:12.084Z,99423.27
2022-11-17T19:41:39.779Z,99427.51
2022-11-17T19:44:08.899Z,99429.19
2022-11-17T19:46:37.609Z,99435.46
2022-11-17T19:49:07.650Z,99435.09
2022-11-17T19:51:41.182Z,99435.56
2022-11-17T19:54:11.097Z,99434.66
2022-11-17T19:56:38.871Z,99434.45
2022-11-17T19:59:08.666Z,99438.16
2022-11-17T20:01:38.923Z,99435.39
2022-11-17T20:04:07.413Z,99437.39
2022-11-17T20:06:37.566Z,99435.64
2022-11-17T20:09:11.205Z,99432.04
2022-11-17T20:11:39.740Z,99428.48
2022-11-17T20:14:07.429Z,99426.95
2022-11-17T20:16:36.670Z,99425.94
2022-11-17T20:19:04.359Z,99424.79
2022-11-17T20:21:32.218Z,99425.84
2022-11-17T20:24:01.104Z,99425.51
2022-11-17T20:26:31.816Z,99422.61
2022-11-17T20:29:00.518Z,99419.52
2022-11-17T20:31:30.311Z,99413.52
2022-11-17T20:34:00.580Z,99413.66
2022-11-17T20:36:29.935Z,99415.02
2022-11-17T20:39:00.493Z,99417.52
2022-11-17T20:41:29.348Z,99419.89
2022-11-17T20:43:58.650Z,99414.39
2022-11-17T20:46:26.804Z,99405.31
2022-11-17T20:48:54.870Z,99395.39
2022-11-17T20:51:24.427Z,99391.43
2022-11-17T20:53:52.381Z,99391.05
2022-11-17T20:56:21.084Z,99394.09
2022-11-17T20:58:48.774Z,99390.14
2022-11-17T21:01:19.089Z,99387.38
2022-11-17T21:03:47.414Z,99385.48
2022-11-17T21:06:16.093Z,99384.45
2022-11-17T21:08:44.995Z,99383.77
2022-11-17T21:11:30.493Z,99386.35
2022-11-17T21:13:58.478Z,99387.90
2022-11-17T21:16:26.066Z,99391.67
2022-11-17T21:18:54.349Z,99388.44
2022-11-17T21:21:22.079Z,99390.81
2022-11-17T21:23:53.931Z,99388.76
2022-11-17T21:26:23.037Z,99392.30
2022-11-17T21:28:51.448Z,99387.15
2022-11-17T21:31:23.439Z,99386.77
2022-11-17T21:33:59.626Z,99388.08
2022-11-17T21:36:29.561Z,99393.30
2022-11-17T21:38:57.992Z,99389.83
2022-11-17T21:41:30.784Z,99385.51
2022-11-17T21:44:00.380Z,99383.60
2022-11-17T21:46:30.199Z,99381.14
2022-11-17T21:48:59.980Z,99378.76
2022-11-17T21:51:33.731Z,99378.45
2022-11-17T21:54:04.391Z,99377.34
2022-11-17T21:56:32.666Z,99369.77
2022-11-17T21:59:05.836Z,99364.56
2022-11-17T22:01:34.698Z,99363.58
2022-11-17T22:04:02.715Z,99368.58
2022-11-17T22:06:30.523Z,99364.71
2022-11-17T22:08:59.609Z,99362.71
2022-11-17T22:11:36.903Z,99368.42
2022-11-17T22:14:16.279Z,99367.80
2022-11-17T22:16:46.868Z,99363.95
2022-11-17T22:19:16.209Z,99363.33
2022-11-17T22:21:44.709Z,99361.69
2022-11-17T22:24:13.007Z,99361.73
2022-11-17T22:26:43.341Z,99358.18
2022-11-17T22:29:14.498Z,99353.80
2022-11-17T22:31:42.347Z,99354.83
2022-11-17T22:34:11.032Z,99356.04
2022-11-17T22:36:39.016Z,99360.85
2022-11-17T22:39:06.881Z,99360.58
2022-11-17T22:41:34.929Z,99361.69
2022-11-17T22:44:02.784Z,99362.62
2022-11-17T22:46:30.395Z,99359.78
2022-11-17T22:48:58.849Z,99360.02
2022-11-17T22:51:43.367Z,99361.63
2022-11-17T22:54:11.306Z,99365.24
2022-11-17T22:56:39.211Z,99364.27
2022-11-17T22:59:07.003Z,99368.88
2022-11-17T23:01:35.219Z,99367.70
2022-11-17T23:04:03.236Z,99368.94
2022-11-17T23:06:30.855Z,99362.46
2022-11-17T23:08:58.868Z,99354.13
2022-11-17T23:11:38.477Z,99357.04
2022-11-17T23:14:09.446Z,99352.77
2022-11-17T23:16:38.219Z,99352.63
2022-11-17T23:19:06.812Z,99347.32
2022-11-17T23:21:34.471Z,99350.77
2022-11-17T23:24:02.217Z,99347.55
2022-11-17T23:26:29.850Z,99345.39
2022-11-17T23:28:58.161Z,99345.60
2022-11-17T23:31:27.813Z,99343.10
2022-11-17T23:33:56.175Z,99340.73
2022-11-17T23:36:24.151Z,99334.24
2022-11-17T23:38:52.486Z,99331.36
2022-11-17T23:41:21.091Z,99333.61
2022-11-17T23:43:53.947Z,99329.19
2022-11-17T23:46:25.202Z,99326.28
2022-11-17T23:48:54.141Z,99323.56
2022-11-17T23:51:24.433Z,99323.56
2022-11-17T23:53:52.534Z,99327.16
2022-11-17T23:56:20.724Z,99330.58
2022-11-17T23:58:49.260Z,99330.42
